sensor_id;sensor_type;location;lat;lon;timestamp;pressure;altitude;pressure_sealevel;temperature;humidity
14393;BME280;7281;42.678;23.372;2022-09-14T00:01:08;95023.91;;;20.25;41.07
14393;BME280;7281;42.678;23.372;2022-09-14T00:03:57;95030.91;;;20.12;41.31
14393;BME280;7281;42.678;23.372;2022-09-14T00:06:25;95023.44;;;20.32;40.53
14393;BME280;7281;42.678;23.372;2022-09-14T00:08:53;95020.72;;;20.06;41.10
14393;BME280;7281;42.678;23.372;2022-09-14T00:11:22;95027.91;;;19.88;41.19
14393;BME280;7281;42.678;23.372;2022-09-14T00:13:50;95025.63;;;18.95;43.11
14393;BME280;7281;42.678;23.372;2022-09-14T00:16:27;95033.97;;;19.80;41.76
14393;BME280;7281;42.678;23.372;2022-09-14T00:18:57;95022.97;;;18.95;42.80
14393;BME280;7281;42.678;23.372;2022-09-14T00:21:36;95021.84;;;19.49;41.76
14393;BME280;7281;42.678;23.372;2022-09-14T00:24:04;95027.13;;;18.87;42.84
14393;BME280;7281;42.678;23.372;2022-09-14T00:26:33;95029.78;;;19.18;41.91
14393;BME280;7281;42.678;23.372;2022-09-14T00:29:01;95035.66;;;19.29;42.15
14393;BME280;7281;42.678;23.372;2022-09-14T00:31:33;95027.41;;;18.77;43.15
14393;BME280;7281;42.678;23.372;2022-09-14T00:34:02;95024.38;;;19.71;41.19
14393;BME280;7281;42.678;23.372;2022-09-14T00:36:30;95029.38;;;18.72;42.96
14393;BME280;7281;42.678;23.372;2022-09-14T00:38:57;95030.56;;;19.41;41.67
14393;BME280;7281;42.678;23.372;2022-09-14T00:41:29;95027.06;;;19.71;41.58
14393;BME280;7281;42.678;23.372;2022-09-14T00:46:33;95028.69;;;20.06;40.67
14393;BME280;7281;42.678;23.372;2022-09-14T00:49:04;95032.91;;;19.90;41.06
14393;BME280;7281;42.678;23.372;2022-09-14T00:51:33;95026.03;;;19.89;41.07
14393;BME280;7281;42.678;23.372;2022-09-14T00:54:02;95032.59;;;19.91;41.41
14393;BME280;7281;42.678;23.372;2022-09-14T00:56:29;95038.16;;;19.73;42.06
14393;BME280;7281;42.678;23.372;2022-09-14T00:58:57;95041.28;;;19.75;41.76
14393;BME280;7281;42.678;23.372;2022-09-14T01:01:27;95041.69;;;20.07;41.23
14393;BME280;7281;42.678;23.372;2022-09-14T01:03:54;95043.22;;;19.83;41.80
14393;BME280;7281;42.678;23.372;2022-09-14T01:17:12;95041.88;;;19.24;43.16
14393;BME280;7281;42.678;23.372;2022-09-14T01:22:50;95040.84;;;19.34;41.88
14393;BME280;7281;42.678;23.372;2022-09-14T01:25:50;95050.38;;;19.35;41.88
14393;BME280;7281;42.678;23.372;2022-09-14T01:28:47;95045.34;;;19.02;41.87
14393;BME280;7281;42.678;23.372;2022-09-14T01:31:27;95049.69;;;18.98;42.46
14393;BME280;7281;42.678;23.372;2022-09-14T01:36:27;95044.00;;;19.36;41.46
14393;BME280;7281;42.678;23.372;2022-09-14T01:38:57;95038.38;;;19.37;41.11
14393;BME280;7281;42.678;23.372;2022-09-14T01:41:28;95035.25;;;19.44;41.09
14393;BME280;7281;42.678;23.372;2022-09-14T01:44:09;95040.16;;;18.97;41.49
14393;BME280;7281;42.678;23.372;2022-09-14T01:46:40;95035.25;;;19.13;41.49
14393;BME280;7281;42.678;23.372;2022-09-14T01:49:36;95044.00;;;19.13;41.49
14393;BME280;7281;42.678;23.372;2022-09-14T01:52:10;95056.09;;;18.97;42.00
14393;BME280;7281;42.678;23.372;2022-09-14T01:54:42;95051.59;;;19.29;41.78
14393;BME280;7281;42.678;23.372;2022-09-14T01:57:22;95054.06;;;18.50;43.05
14393;BME280;7281;42.678;23.372;2022-09-14T01:59:53;95049.06;;;19.01;41.72
14393;BME280;7281;42.678;23.372;2022-09-14T02:02:29;95040.38;;;19.09;41.89
14393;BME280;7281;42.678;23.372;2022-09-14T02:07:36;95042.03;;;19.28;41.47
14393;BME280;7281;42.678;23.372;2022-09-14T02:10:06;95037.94;;;19.21;41.59
14393;BME280;7281;42.678;23.372;2022-09-14T02:12:35;95046.28;;;19.29;41.39
14393;BME280;7281;42.678;23.372;2022-09-14T02:15:03;95044.03;;;18.91;42.44
14393;BME280;7281;42.678;23.372;2022-09-14T02:17:31;95049.47;;;18.64;43.73
14393;BME280;7281;42.678;23.372;2022-09-14T02:19:59;95060.75;;;18.92;43.38
14393;BME280;7281;42.678;23.372;2022-09-14T02:22:28;95047.88;;;18.63;43.23
14393;BME280;7281;42.678;23.372;2022-09-14T02:24:56;95047.97;;;18.72;42.98
14393;BME280;7281;42.678;23.372;2022-09-14T02:27:24;95047.41;;;18.83;43.25
14393;BME280;7281;42.678;23.372;2022-09-14T02:29:51;95037.34;;;18.36;44.08
14393;BME280;7281;42.678;23.372;2022-09-14T02:32:41;95035.50;;;18.01;44.97
14393;BME280;7281;42.678;23.372;2022-09-14T02:35:19;95043.56;;;18.67;43.50
14393;BME280;7281;42.678;23.372;2022-09-14T02:56:19;95047.16;;;18.49;43.83
14393;BME280;7281;42.678;23.372;2022-09-14T02:58:47;95051.09;;;18.38;43.70
14393;BME280;7281;42.678;23.372;2022-09-14T03:01:19;95030.88;;;18.42;43.52
14393;BME280;7281;42.678;23.372;2022-09-14T03:03:46;95044.03;;;18.69;43.52
14393;BME280;7281;42.678;23.372;2022-09-14T03:06:14;95053.94;;;18.77;43.19
14393;BME280;7281;42.678;23.372;2022-09-14T03:08:41;95047.16;;;18.49;43.93
14393;BME280;7281;42.678;23.372;2022-09-14T03:11:09;95061.25;;;18.72;43.35
14393;BME280;7281;42.678;23.372;2022-09-14T03:13:36;95045.72;;;18.65;42.94
14393;BME280;7281;42.678;23.372;2022-09-14T03:16:11;95053.84;;;18.11;44.61
14393;BME280;7281;42.678;23.372;2022-09-14T03:18:39;95058.88;;;18.48;43.46
14393;BME280;7281;42.678;23.372;2022-09-14T03:21:16;95059.06;;;18.02;44.53
14393;BME280;7281;42.678;23.372;2022-09-14T03:23:48;95055.44;;;18.34;43.75
14393;BME280;7281;42.678;23.372;2022-09-14T03:26:18;95060.38;;;18.27;44.13
14393;BME280;7281;42.678;23.372;2022-09-14T03:28:56;95053.19;;;18.41;43.39
14393;BME280;7281;42.678;23.372;2022-09-14T03:31:25;95053.66;;;18.43;43.45
14393;BME280;7281;42.678;23.372;2022-09-14T03:33:53;95055.06;;;18.27;44.20
14393;BME280;7281;42.678;23.372;2022-09-14T03:36:21;95061.84;;;17.84;44.64
14393;BME280;7281;42.678;23.372;2022-09-14T03:38:50;95049.19;;;18.30;44.01
14393;BME280;7281;42.678;23.372;2022-09-14T03:41:21;95054.25;;;18.40;43.41
14393;BME280;7281;42.678;23.372;2022-09-14T03:43:48;95048.38;;;18.30;43.65
14393;BME280;7281;42.678;23.372;2022-09-14T03:46:33;95054.25;;;18.40;43.34
14393;BME280;7281;42.678;23.372;2022-09-14T03:49:00;95051.94;;;18.25;43.88
14393;BME280;7281;42.678;23.372;2022-09-14T03:51:26;95041.75;;;18.05;44.05
14393;BME280;7281;42.678;23.372;2022-09-14T03:53:53;95057.72;;;17.78;44.71
14393;BME280;7281;42.678;23.372;2022-09-14T03:56:21;95066.53;;;17.87;44.33
14393;BME280;7281;42.678;23.372;2022-09-14T03:58:49;95061.47;;;17.50;45.12
14393;BME280;7281;42.678;23.372;2022-09-14T04:01:18;95065.72;;;17.18;46.17
14393;BME280;7281;42.678;23.372;2022-09-14T04:03:47;95063.91;;;17.73;45.07
14393;BME280;7281;42.678;23.372;2022-09-14T04:06:15;95058.81;;;17.77;44.77
14393;BME280;7281;42.678;23.372;2022-09-14T04:08:44;95062.59;;;17.98;44.27
14393;BME280;7281;42.678;23.372;2022-09-14T04:11:17;95070.44;;;18.03;44.28
14393;BME280;7281;42.678;23.372;2022-09-14T04:13:44;95062.31;;;17.72;44.60
14393;BME280;7281;42.678;23.372;2022-09-14T04:16:12;95063.66;;;18.10;44.34
14393;BME280;7281;42.678;23.372;2022-09-14T04:18:39;95064.19;;;17.99;44.18
14393;BME280;7281;42.678;23.372;2022-09-14T04:21:12;95059.44;;;17.96;44.31
14393;BME280;7281;42.678;23.372;2022-09-14T04:23:39;95065.94;;;17.63;45.54
14393;BME280;7281;42.678;23.372;2022-09-14T04:26:28;95054.56;;;17.76;46.13
14393;BME280;7281;42.678;23.372;2022-09-14T04:28:56;95064.06;;;17.36;47.03
14393;BME280;7281;42.678;23.372;2022-09-14T04:31:23;95063.41;;;17.58;46.37
14393;BME280;7281;42.678;23.372;2022-09-14T04:33:52;95060.66;;;17.49;46.46
14393;BME280;7281;42.678;23.372;2022-09-14T04:36:23;95060.47;;;17.73;45.98
14393;BME280;7281;42.678;23.372;2022-09-14T04:38:54;95062.44;;;17.81;45.96
14393;BME280;7281;42.678;23.372;2022-09-14T04:41:23;95068.59;;;17.63;46.47
14393;BME280;7281;42.678;23.372;2022-09-14T04:43:51;95073.81;;;17.81;45.10
14393;BME280;7281;42.678;23.372;2022-09-14T04:46:23;95077.53;;;17.67;45.80
14393;BME280;7281;42.678;23.372;2022-09-14T04:48:50;95071.81;;;17.33;46.11
14393;BME280;7281;42.678;23.372;2022-09-14T04:51:20;95086.13;;;17.32;46.43
14393;BME280;7281;42.678;23.372;2022-09-14T04:53:50;95081.06;;;17.49;46.38
14393;BME280;7281;42.678;23.372;2022-09-14T04:56:18;95076.56;;;17.76;45.53
14393;BME280;7281;42.678;23.372;2022-09-14T04:58:48;95082.84;;;17.80;45.59
14393;BME280;7281;42.678;23.372;2022-09-14T05:01:19;95086.25;;;17.94;45.59
14393;BME280;7281;42.678;23.372;2022-09-14T05:03:47;95089.91;;;17.85;45.34
14393;BME280;7281;42.678;23.372;2022-09-14T05:06:18;95090.97;;;17.97;45.95
14393;BME280;7281;42.678;23.372;2022-09-14T05:08:46;95092.84;;;17.97;45.47
14393;BME280;7281;42.678;23.372;2022-09-14T05:11:15;95096.94;;;18.03;45.24
14393;BME280;7281;42.678;23.372;2022-09-14T05:13:43;95100.22;;;18.36;44.50
14393;BME280;7281;42.678;23.372;2022-09-14T05:16:21;95099.72;;;17.98;45.15
14393;BME280;7281;42.678;23.372;2022-09-14T05:18:49;95103.94;;;17.85;45.54
14393;BME280;7281;42.678;23.372;2022-09-14T05:21:18;95099.53;;;18.08;45.07
14393;BME280;7281;42.678;23.372;2022-09-14T05:23:45;95098.78;;;18.43;44.38
14393;BME280;7281;42.678;23.372;2022-09-14T05:26:13;95096.94;;;18.30;44.87
14393;BME280;7281;42.678;23.372;2022-09-14T05:28:40;95105.47;;;18.27;44.70
14393;BME280;7281;42.678;23.372;2022-09-14T05:31:09;95112.66;;;18.13;45.02
14393;BME280;7281;42.678;23.372;2022-09-14T05:33:36;95122.97;;;18.14;45.36
14393;BME280;7281;42.678;23.372;2022-09-14T05:36:05;95113.88;;;17.93;46.38
14393;BME280;7281;42.678;23.372;2022-09-14T05:38:34;95112.47;;;17.96;45.92
14393;BME280;7281;42.678;23.372;2022-09-14T05:41:01;95118.63;;;18.32;45.25
14393;BME280;7281;42.678;23.372;2022-09-14T05:43:29;95111.72;;;18.58;44.68
14393;BME280;7281;42.678;23.372;2022-09-14T05:46:00;95118.84;;;18.22;45.49
14393;BME280;7281;42.678;23.372;2022-09-14T05:48:34;95115.28;;;18.40;45.14
14393;BME280;7281;42.678;23.372;2022-09-14T05:51:09;95108.81;;;18.90;43.98
14393;BME280;7281;42.678;23.372;2022-09-14T05:53:36;95115.72;;;19.13;43.76
14393;BME280;7281;42.678;23.372;2022-09-14T05:56:06;95132.06;;;19.29;43.60
14393;BME280;7281;42.678;23.372;2022-09-14T05:58:35;95127.06;;;18.48;45.45
14393;BME280;7281;42.678;23.372;2022-09-14T06:01:07;95126.94;;;19.33;43.70
14393;BME280;7281;42.678;23.372;2022-09-14T06:03:35;95119.69;;;19.25;43.64
14393;BME280;7281;42.678;23.372;2022-09-14T06:06:04;95125.88;;;18.89;45.69
14393;BME280;7281;42.678;23.372;2022-09-14T06:08:31;95127.50;;;18.63;46.14
14393;BME280;7281;42.678;23.372;2022-09-14T06:11:06;95116.94;;;18.36;46.82
14393;BME280;7281;42.678;23.372;2022-09-14T06:13:33;95123.81;;;18.51;46.39
14393;BME280;7281;42.678;23.372;2022-09-14T06:16:02;95124.88;;;18.85;46.43
14393;BME280;7281;42.678;23.372;2022-09-14T06:18:34;95120.38;;;19.61;44.49
14393;BME280;7281;42.678;23.372;2022-09-14T06:21:02;95118.50;;;20.00;42.78
14393;BME280;7281;42.678;23.372;2022-09-14T06:23:30;95105.56;;;20.16;42.63
14393;BME280;7281;42.678;23.372;2022-09-14T06:26:00;95108.06;;;20.12;43.25
14393;BME280;7281;42.678;23.372;2022-09-14T06:28:28;95115.66;;;19.88;43.75
14393;BME280;7281;42.678;23.372;2022-09-14T06:30:55;95097.91;;;19.67;43.07
14393;BME280;7281;42.678;23.372;2022-09-14T06:33:22;95108.97;;;20.08;42.46
14393;BME280;7281;42.678;23.372;2022-09-14T06:35:58;95106.53;;;20.20;42.53
14393;BME280;7281;42.678;23.372;2022-09-14T06:38:25;95094.97;;;20.33;42.10
14393;BME280;7281;42.678;23.372;2022-09-14T06:40:56;95102.22;;;20.02;42.42
14393;BME280;7281;42.678;23.372;2022-09-14T06:43:30;95100.47;;;20.96;40.44
14393;BME280;7281;42.678;23.372;2022-09-14T06:45:59;95091.06;;;20.90;40.56
14393;BME280;7281;42.678;23.372;2022-09-14T06:48:29;95104.75;;;20.07;43.00
14393;BME280;7281;42.678;23.372;2022-09-14T06:50:56;95097.22;;;20.65;40.57
14393;BME280;7281;42.678;23.372;2022-09-14T06:53:23;95102.03;;;21.06;39.32
14393;BME280;7281;42.678;23.372;2022-09-14T06:55:50;95109.56;;;20.53;41.59
14393;BME280;7281;42.678;23.372;2022-09-14T06:58:17;95119.22;;;20.32;42.67
14393;BME280;7281;42.678;23.372;2022-09-14T07:00:45;95113.47;;;20.81;41.23
14393;BME280;7281;42.678;23.372;2022-09-14T07:03:12;95115.03;;;20.73;41.79
14393;BME280;7281;42.678;23.372;2022-09-14T07:05:39;95114.25;;;20.64;41.93
14393;BME280;7281;42.678;23.372;2022-09-14T07:08:05;95110.97;;;20.93;41.03
14393;BME280;7281;42.678;23.372;2022-09-14T07:10:37;95091.69;;;21.13;40.84
14393;BME280;7281;42.678;23.372;2022-09-14T07:13:04;95099.56;;;21.64;39.49
14393;BME280;7281;42.678;23.372;2022-09-14T07:15:31;95093.25;;;21.86;38.33
14393;BME280;7281;42.678;23.372;2022-09-14T07:17:58;95096.53;;;21.83;38.68
14393;BME280;7281;42.678;23.372;2022-09-14T07:20:25;95087.25;;;21.89;39.43
14393;BME280;7281;42.678;23.372;2022-09-14T07:22:52;95099.00;;;21.96;38.58
14393;BME280;7281;42.678;23.372;2022-09-14T07:25:19;95091.47;;;22.19;37.83
14393;BME280;7281;42.678;23.372;2022-09-14T07:27:46;95087.19;;;22.06;38.04
14393;BME280;7281;42.678;23.372;2022-09-14T07:30:13;95067.53;;;22.31;37.83
14393;BME280;7281;42.678;23.372;2022-09-14T07:32:39;95086.34;;;22.64;37.09
14393;BME280;7281;42.678;23.372;2022-09-14T07:35:06;95085.19;;;21.94;37.93
14393;BME280;7281;42.678;23.372;2022-09-14T07:37:33;95084.75;;;22.42;37.21
14393;BME280;7281;42.678;23.372;2022-09-14T07:40:00;95081.19;;;22.79;37.31
14393;BME280;7281;42.678;23.372;2022-09-14T07:42:27;95080.78;;;21.98;37.66
14393;BME280;7281;42.678;23.372;2022-09-14T07:44:55;95082.38;;;22.20;37.93
14393;BME280;7281;42.678;23.372;2022-09-14T07:47:22;95083.47;;;22.19;36.48
14393;BME280;7281;42.678;23.372;2022-09-14T07:49:49;95086.69;;;21.66;37.40
14393;BME280;7281;42.678;23.372;2022-09-14T07:52:16;95089.47;;;22.16;37.45
14393;BME280;7281;42.678;23.372;2022-09-14T07:54:43;95084.75;;;22.42;37.30
14393;BME280;7281;42.678;23.372;2022-09-14T07:57:10;95087.88;;;22.44;38.29
14393;BME280;7281;42.678;23.372;2022-09-14T07:59:36;95079.53;;;22.87;37.38
14393;BME280;7281;42.678;23.372;2022-09-14T08:02:05;95083.75;;;23.08;37.84
14393;BME280;7281;42.678;23.372;2022-09-14T08:04:34;95086.75;;;23.07;36.80
14393;BME280;7281;42.678;23.372;2022-09-14T08:07:02;95089.44;;;23.40;35.93
14393;BME280;7281;42.678;23.372;2022-09-14T08:09:28;95087.66;;;23.44;36.58
14393;BME280;7281;42.678;23.372;2022-09-14T08:11:56;95083.63;;;23.38;37.15
14393;BME280;7281;42.678;23.372;2022-09-14T08:14:23;95083.81;;;23.65;36.46
14393;BME280;7281;42.678;23.372;2022-09-14T08:16:50;95079.88;;;23.39;36.42
14393;BME280;7281;42.678;23.372;2022-09-14T08:19:18;95082.09;;;23.49;36.95
14393;BME280;7281;42.678;23.372;2022-09-14T08:21:46;95078.78;;;23.76;36.11
14393;BME280;7281;42.678;23.372;2022-09-14T08:24:18;95057.97;;;24.18;35.40
14393;BME280;7281;42.678;23.372;2022-09-14T08:26:47;95063.22;;;24.26;34.78
14393;BME280;7281;42.678;23.372;2022-09-14T08:29:15;95070.72;;;23.40;37.74
14393;BME280;7281;42.678;23.372;2022-09-14T08:31:43;95067.88;;;23.93;35.98
14393;BME280;7281;42.678;23.372;2022-09-14T08:34:11;95061.34;;;24.54;34.47
14393;BME280;7281;42.678;23.372;2022-09-14T08:36:40;95067.88;;;24.41;35.14
14393;BME280;7281;42.678;23.372;2022-09-14T08:39:09;95068.53;;;24.38;35.89
14393;BME280;7281;42.678;23.372;2022-09-14T08:44:42;95061.03;;;24.95;34.54
14393;BME280;7281;42.678;23.372;2022-09-14T08:47:18;95061.31;;;24.27;37.18
14393;BME280;7281;42.678;23.372;2022-09-14T08:52:44;95061.78;;;24.68;35.55
14393;BME280;7281;42.678;23.372;2022-09-14T08:55:20;95041.91;;;24.97;35.26
14393;BME280;7281;42.678;23.372;2022-09-14T09:00:26;95046.69;;;25.93;33.47
14393;BME280;7281;42.678;23.372;2022-09-14T09:11:00;95040.38;;;25.86;33.84
14393;BME280;7281;42.678;23.372;2022-09-14T09:13:34;95041.00;;;26.11;32.99
14393;BME280;7281;42.678;23.372;2022-09-14T09:16:06;95042.22;;;26.67;32.31
14393;BME280;7281;42.678;23.372;2022-09-14T09:18:50;95028.50;;;26.02;31.43
14393;BME280;7281;42.678;23.372;2022-09-14T09:21:30;95026.13;;;26.32;31.62
14393;BME280;7281;42.678;23.372;2022-09-14T09:26:43;95024.81;;;26.61;32.67
14393;BME280;7281;42.678;23.372;2022-09-14T09:29:10;95022.63;;;27.04;32.45
14393;BME280;7281;42.678;23.372;2022-09-14T09:31:56;95025.25;;;27.43;31.71
14393;BME280;7281;42.678;23.372;2022-09-14T09:34:48;95024.28;;;27.32;32.62
14393;BME280;7281;42.678;23.372;2022-09-14T09:37:29;95018.88;;;28.22;31.14
14393;BME280;7281;42.678;23.372;2022-09-14T09:39:58;95021.09;;;28.17;30.91
14393;BME280;7281;42.678;23.372;2022-09-14T09:42:26;95018.03;;;28.18;31.29
14393;BME280;7281;42.678;23.372;2022-09-14T09:45:01;95020.69;;;27.92;29.44
14393;BME280;7281;42.678;23.372;2022-09-14T09:47:42;95019.88;;;27.88;29.31
14393;BME280;7281;42.678;23.372;2022-09-14T09:52:48;95010.28;;;28.13;31.64
14393;BME280;7281;42.678;23.372;2022-09-14T09:55:20;95009.66;;;27.97;30.71
14393;BME280;7281;42.678;23.372;2022-09-14T09:57:48;95005.50;;;28.03;30.85
14393;BME280;7281;42.678;23.372;2022-09-14T10:00:24;95008.81;;;28.49;30.91
14393;BME280;7281;42.678;23.372;2022-09-14T10:02:53;95001.16;;;28.80;29.63
14393;BME280;7281;42.678;23.372;2022-09-14T10:05:25;94994.59;;;29.11;28.58
14393;BME280;7281;42.678;23.372;2022-09-14T10:07:57;94996.50;;;28.77;29.76
14393;BME280;7281;42.678;23.372;2022-09-14T10:13:03;94988.66;;;28.65;28.72
14393;BME280;7281;42.678;23.372;2022-09-14T10:15:34;94976.63;;;28.92;28.55
14393;BME280;7281;42.678;23.372;2022-09-14T10:23:30;94964.34;;;29.32;29.00
14393;BME280;7281;42.678;23.372;2022-09-14T10:28:45;94958.16;;;29.75;28.56
14393;BME280;7281;42.678;23.372;2022-09-14T10:31:17;94962.03;;;28.97;29.38
14393;BME280;7281;42.678;23.372;2022-09-14T10:33:49;94973.03;;;29.15;29.02
14393;BME280;7281;42.678;23.372;2022-09-14T10:36:38;94962.47;;;29.03;29.72
14393;BME280;7281;42.678;23.372;2022-09-14T10:39:16;94954.56;;;29.17;30.08
14393;BME280;7281;42.678;23.372;2022-09-14T10:44:51;94955.81;;;29.70;28.42
14393;BME280;7281;42.678;23.372;2022-09-14T10:47:38;94951.31;;;29.88;26.63
14393;BME280;7281;42.678;23.372;2022-09-14T10:58:33;94934.47;;;30.12;27.39
14393;BME280;7281;42.678;23.372;2022-09-14T11:01:24;94941.03;;;31.01;nan
14393;BME280;7281;42.678;23.372;2022-09-14T11:09:28;94930.25;;;31.57;25.08
14393;BME280;7281;42.678;23.372;2022-09-14T11:12:29;94924.09;;;31.56;24.55
14393;BME280;7281;42.678;23.372;2022-09-14T11:15:03;94930.28;;;31.43;25.08
14393;BME280;7281;42.678;23.372;2022-09-14T11:20:34;94919.41;;;31.18;24.96
14393;BME280;7281;42.678;23.372;2022-09-14T11:28:23;94930.19;;;31.01;26.12
14393;BME280;7281;42.678;23.372;2022-09-14T11:33:32;94912.47;;;31.84;23.74
14393;BME280;7281;42.678;23.372;2022-09-14T11:36:21;94904.72;;;31.58;25.66
14393;BME280;7281;42.678;23.372;2022-09-14T11:38:53;94896.16;;;32.02;24.85
14393;BME280;7281;42.678;23.372;2022-09-14T11:41:28;94893.88;;;31.26;24.92
14393;BME280;7281;42.678;23.372;2022-09-14T11:44:00;94890.81;;;31.42;25.44
14393;BME280;7281;42.678;23.372;2022-09-14T11:46:33;94883.75;;;32.11;21.91
14393;BME280;7281;42.678;23.372;2022-09-14T11:49:16;94885.16;;;32.54;23.07
14393;BME280;7281;42.678;23.372;2022-09-14T11:52:14;94880.56;;;32.44;21.67
14393;BME280;7281;42.678;23.372;2022-09-14T11:54:43;94879.59;;;32.83;21.28
14393;BME280;7281;42.678;23.372;2022-09-14T11:57:21;94880.50;;;33.20;20.08
14393;BME280;7281;42.678;23.372;2022-09-14T11:59:54;94883.00;;;32.97;20.03
14393;BME280;7281;42.678;23.372;2022-09-14T12:12:44;94879.56;;;32.86;20.07
14393;BME280;7281;42.678;23.372;2022-09-14T12:17:52;94871.13;;;33.28;20.31
14393;BME280;7281;42.678;23.372;2022-09-14T12:36:02;94864.16;;;34.12;19.99
14393;BME280;7281;42.678;23.372;2022-09-14T12:41:01;94872.09;;;33.93;18.87
14393;BME280;7281;42.678;23.372;2022-09-14T12:46:11;94862.72;;;34.34;19.43
14393;BME280;7281;42.678;23.372;2022-09-14T12:49:28;94854.91;;;34.36;18.61
14393;BME280;7281;42.678;23.372;2022-09-14T12:51:59;94856.03;;;34.72;19.96
14393;BME280;7281;42.678;23.372;2022-09-14T12:54:38;94857.19;;;34.41;20.28
14393;BME280;7281;42.678;23.372;2022-09-14T12:57:39;94863.22;;;34.59;19.48
14393;BME280;7281;42.678;23.372;2022-09-14T13:00:18;94864.06;;;35.10;19.94
14393;BME280;7281;42.678;23.372;2022-09-14T13:03:14;94855.81;;;34.87;19.96
14393;BME280;7281;42.678;23.372;2022-09-14T13:05:45;94865.16;;;35.39;19.17
14393;BME280;7281;42.678;23.372;2022-09-14T13:08:18;94871.28;;;34.93;18.75
14393;BME280;7281;42.678;23.372;2022-09-14T13:10:49;94873.91;;;34.73;19.44
14393;BME280;7281;42.678;23.372;2022-09-14T13:13:21;94870.13;;;35.21;19.66
14393;BME280;7281;42.678;23.372;2022-09-14T13:15:52;94871.66;;;35.22;19.78
14393;BME280;7281;42.678;23.372;2022-09-14T13:23:46;94867.09;;;35.15;20.18
14393;BME280;7281;42.678;23.372;2022-09-14T13:26:24;94855.91;;;35.79;19.15
14393;BME280;7281;42.678;23.372;2022-09-14T13:28:52;94860.53;;;35.82;19.71
14393;BME280;7281;42.678;23.372;2022-09-14T13:31:29;94866.25;;;35.45;19.66
14393;BME280;7281;42.678;23.372;2022-09-14T13:33:57;94861.38;;;35.79;19.42
14393;BME280;7281;42.678;23.372;2022-09-14T13:36:30;94864.41;;;36.04;19.91
14393;BME280;7281;42.678;23.372;2022-09-14T13:39:00;94867.03;;;35.19;19.26
14393;BME280;7281;42.678;23.372;2022-09-14T13:41:29;94866.47;;;34.47;19.63
14393;BME280;7281;42.678;23.372;2022-09-14T13:43:57;94868.09;;;34.41;19.39
14393;BME280;7281;42.678;23.372;2022-09-14T13:46:25;94868.78;;;35.06;19.10
14393;BME280;7281;42.678;23.372;2022-09-14T13:48:53;94868.50;;;35.50;19.10
14393;BME280;7281;42.678;23.372;2022-09-14T13:51:24;94862.19;;;35.30;19.12
14393;BME280;7281;42.678;23.372;2022-09-14T13:53:56;94858.72;;;36.38;19.45
14393;BME280;7281;42.678;23.372;2022-09-14T13:56:32;94865.22;;;35.58;19.44
14393;BME280;7281;42.678;23.372;2022-09-14T14:04:32;94852.38;;;35.82;19.63
14393;BME280;7281;42.678;23.372;2022-09-14T14:07:21;94837.53;;;35.83;19.28
14393;BME280;7281;42.678;23.372;2022-09-14T14:09:55;94835.44;;;35.48;19.53
14393;BME280;7281;42.678;23.372;2022-09-14T14:12:32;94834.50;;;36.76;18.97
14393;BME280;7281;42.678;23.372;2022-09-14T14:15:03;94836.66;;;36.48;18.95
14393;BME280;7281;42.678;23.372;2022-09-14T14:17:32;94843.50;;;36.17;18.93
14393;BME280;7281;42.678;23.372;2022-09-14T14:22:58;94828.81;;;36.50;19.14
14393;BME280;7281;42.678;23.372;2022-09-14T14:25:40;94826.03;;;36.34;18.65
14393;BME280;7281;42.678;23.372;2022-09-14T14:28:21;94834.81;;;35.37;19.23
14393;BME280;7281;42.678;23.372;2022-09-14T14:30:49;94825.38;;;35.45;19.38
14393;BME280;7281;42.678;23.372;2022-09-14T14:33:17;94830.72;;;34.45;20.03
14393;BME280;7281;42.678;23.372;2022-09-14T14:35:46;94825.34;;;34.38;20.31
14393;BME280;7281;42.678;23.372;2022-09-14T14:38:13;94829.31;;;34.91;19.97
14393;BME280;7281;42.678;23.372;2022-09-14T14:40:41;94832.53;;;34.82;19.80
14393;BME280;7281;42.678;23.372;2022-09-14T14:43:16;94826.09;;;34.72;19.97
14393;BME280;7281;42.678;23.372;2022-09-14T14:45:44;94829.25;;;35.21;19.62
14393;BME280;7281;42.678;23.372;2022-09-14T14:48:12;94819.44;;;34.73;19.82
14393;BME280;7281;42.678;23.372;2022-09-14T14:50:39;94823.38;;;35.49;19.63
14393;BME280;7281;42.678;23.372;2022-09-14T14:53:07;94818.59;;;36.15;19.30
14393;BME280;7281;42.678;23.372;2022-09-14T14:55:34;94811.31;;;36.28;18.96
14393;BME280;7281;42.678;23.372;2022-09-14T14:58:05;94821.91;;;35.64;19.24
14393;BME280;7281;42.678;23.372;2022-09-14T15:00:34;94813.69;;;35.44;19.42
14393;BME280;7281;42.678;23.372;2022-09-14T15:03:02;94805.09;;;35.89;19.23
14393;BME280;7281;42.678;23.372;2022-09-14T15:05:29;94807.28;;;35.97;19.60
14393;BME280;7281;42.678;23.372;2022-09-14T15:07:56;94807.38;;;35.51;19.62
14393;BME280;7281;42.678;23.372;2022-09-14T15:10:25;94801.31;;;35.40;19.38
14393;BME280;7281;42.678;23.372;2022-09-14T15:12:52;94804.91;;;35.99;19.32
14393;BME280;7281;42.678;23.372;2022-09-14T15:15:23;94796.59;;;35.40;19.55
14393;BME280;7281;42.678;23.372;2022-09-14T15:17:51;94804.06;;;34.63;20.13
14393;BME280;7281;42.678;23.372;2022-09-14T15:20:19;94799.22;;;34.14;20.63
14393;BME280;7281;42.678;23.372;2022-09-14T15:22:46;94801.88;;;33.88;20.86
14393;BME280;7281;42.678;23.372;2022-09-14T15:25:15;94798.59;;;34.33;20.74
14393;BME280;7281;42.678;23.372;2022-09-14T15:27:43;94796.84;;;33.86;21.02
14393;BME280;7281;42.678;23.372;2022-09-14T15:30:11;94790.69;;;33.45;21.50
14393;BME280;7281;42.678;23.372;2022-09-14T15:32:38;94793.25;;;33.15;21.85
14393;BME280;7281;42.678;23.372;2022-09-14T15:35:08;94791.31;;;33.59;21.26
14393;BME280;7281;42.678;23.372;2022-09-14T15:37:37;94789.91;;;34.15;20.94
14393;BME280;7281;42.678;23.372;2022-09-14T15:40:04;94785.63;;;34.14;20.76
14393;BME280;7281;42.678;23.372;2022-09-14T15:42:31;94787.25;;;33.74;21.27
14393;BME280;7281;42.678;23.372;2022-09-14T15:44:58;94781.63;;;33.92;21.04
14393;BME280;7281;42.678;23.372;2022-09-14T15:47:25;94784.41;;;33.85;21.33
14393;BME280;7281;42.678;23.372;2022-09-14T15:49:52;94782.63;;;33.31;21.80